Time;durP1;ratioP1;P1;durP2;ratioP2;P2;SDS_P1;SDS_P2;PMS_P1;PMS_P2;Temp;Humidity;BMP_temperature;BMP_pressure;BME280_temperature;BME280_humidity;BME280_pressure;Samples;Min_cycle;Max_cycle;Signal;HPM_P1;HPM_P2
2024/04/01 00:00:46;;;;;;;54.03;33.73;;;12.70;1.00;;;;;;6301449;22;20455;-85
2024/04/01 00:03:13;;;;;;;41.17;31.00;;;12.60;99.90;;;;;;6283699;22;20375;-85
2024/04/01 00:05:39;;;;;;;46.60;31.87;;;12.60;99.90;;;;;;6287963;22;20220;-85
2024/04/01 00:08:07;;;;;;;44.33;31.53;;;12.50;1.00;;;;;;6287832;22;20857;-85
2024/04/01 00:10:32;;;;;;;37.77;29.93;;;12.40;1.00;;;;;;6289636;22;20400;-85
2024/04/01 00:13:01;;;;;;;46.27;33.43;;;12.40;99.90;;;;;;6291972;22;20411;-87
2024/04/01 00:15:27;;;;;;;37.60;30.10;;;12.40;99.90;;;;;;6298700;22;20178;-86
2024/04/01 00:17:54;;;;;;;62.07;31.37;;;12.30;99.90;;;;;;6301196;22;20385;-87
2024/04/01 00:20:20;;;;;;;52.37;35.70;;;12.30;99.90;;;;;;6303165;22;20404;-86
2024/04/01 00:22:48;;;;;;;35.47;30.80;;;12.30;99.90;;;;;;6304867;22;20387;-86
2024/04/01 00:25:14;;;;;;;50.90;31.47;;;12.30;99.90;;;;;;6300865;22;20405;-84
2024/04/01 00:27:41;;;;;;;58.67;33.83;;;12.30;99.90;;;;;;6305083;22;20472;-85
2024/04/01 00:30:09;;;;;;;45.77;32.60;;;12.20;99.90;;;;;;6305044;22;20421;-85
2024/04/01 00:32:36;;;;;;;57.57;31.07;;;12.20;99.90;;;;;;6302226;22;20396;-82
2024/04/01 00:35:02;;;;;;;47.30;31.03;;;12.20;99.90;;;;;;6300467;22;20404;-86
2024/04/01 00:37:29;;;;;;;41.00;30.30;;;12.20;99.90;;;;;;6281846;22;20408;-86
2024/04/01 00:39:55;;;;;;;48.10;30.87;;;12.20;99.90;;;;;;6280343;22;20771;-86
2024/04/01 00:42:22;;;;;;;45.10;30.57;;;12.20;99.90;;;;;;6283228;22;20439;-86
2024/04/01 00:44:48;;;;;;;37.67;30.20;;;12.20;99.90;;;;;;6288034;22;20385;-86
2024/04/01 00:47:16;;;;;;;41.90;29.43;;;12.20;99.90;;;;;;6287923;22;20444;-87
2024/04/01 00:49:43;;;;;;;46.80;28.83;;;12.20;99.90;;;;;;6287339;22;20209;-87
2024/04/01 00:52:10;;;;;;;49.73;31.07;;;12.20;99.90;;;;;;6288226;22;20460;-87
2024/04/01 00:54:36;;;;;;;39.07;28.87;;;12.20;99.90;;;;;;6286986;22;20400;-84
2024/04/01 00:57:04;;;;;;;43.37;27.73;;;12.10;99.90;;;;;;6287027;22;20404;-87
2024/04/01 00:59:31;;;;;;;50.13;29.60;;;12.10;99.90;;;;;;6288246;22;20420;-85
2024/04/01 01:01:58;;;;;;;35.80;28.43;;;12.10;99.90;;;;;;6288510;22;20423;-85
2024/04/01 01:04:26;;;;;;;43.67;28.83;;;12.00;99.90;;;;;;6289500;22;20403;-85
2024/04/01 01:06:53;;;;;;;42.90;28.10;;;12.00;99.90;;;;;;6292157;22;20400;-85
2024/04/01 01:09:19;;;;;;;40.50;26.70;;;12.00;99.90;;;;;;6292102;22;20400;-85
2024/04/01 01:11:46;;;;;;;30.73;27.37;;;12.00;99.90;;;;;;6289804;22;20760;-85
2024/04/01 01:14:12;;;;;;;44.93;27.80;;;11.90;99.90;;;;;;6286600;22;20425;-85
2024/04/01 01:16:38;;;;;;;40.47;25.30;;;12.00;99.90;;;;;;6287418;22;20397;-85
2024/04/01 01:19:06;;;;;;;35.60;24.37;;;11.90;99.90;;;;;;6289938;22;20371;-82
2024/04/01 01:21:34;;;;;;;35.33;23.97;;;11.90;99.90;;;;;;6286966;22;20444;-86
2024/04/01 01:24:02;;;;;;;44.27;24.80;;;11.90;99.90;;;;;;6293140;22;20404;-84
2024/04/01 01:26:29;;;;;;;41.20;22.77;;;11.90;99.90;;;;;;6283926;22;20396;-83
2024/04/01 01:28:56;;;;;;;46.90;24.63;;;11.90;99.90;;;;;;6290463;22;20400;-84
2024/04/01 01:31:23;;;;;;;35.23;23.70;;;11.80;99.90;;;;;;6294409;22;20399;-84
2024/04/01 01:33:49;;;;;;;35.87;23.57;;;11.80;99.90;;;;;;6288668;22;20428;-84
2024/04/01 01:36:16;;;;;;;45.93;22.47;;;11.80;99.90;;;;;;6286479;22;20411;-84
2024/04/01 01:38:42;;;;;;;42.50;23.17;;;11.80;99.90;;;;;;6286017;22;20435;-84
2024/04/01 01:41:10;;;;;;;34.90;22.60;;;11.80;99.90;;;;;;6287703;22;20452;-85
2024/04/01 01:43:36;;;;;;;41.30;24.03;;;11.70;99.90;;;;;;6285876;22;20436;-84
2024/04/01 01:46:03;;;;;;;36.53;21.83;;;11.70;99.90;;;;;;6294799;22;20408;-84
2024/04/01 01:48:29;;;;;;;48.33;23.27;;;11.70;99.90;;;;;;6304883;22;20173;-84
2024/04/01 01:50:55;;;;;;;35.00;22.73;;;11.70;99.90;;;;;;6290433;22;20427;-84
2024/04/01 01:53:21;;;;;;;40.97;23.50;;;11.60;99.90;;;;;;6286633;22;20177;-84
2024/04/01 01:55:48;;;;;;;35.47;22.97;;;11.60;99.90;;;;;;6285933;22;20400;-84
2024/04/01 01:58:16;;;;;;;34.37;23.53;;;11.50;99.90;;;;;;6286044;22;20400;-84
2024/04/01 02:00:42;;;;;;;36.80;23.43;;;11.50;99.90;;;;;;6285415;22;20442;-84
2024/04/01 02:03:08;;;;;;;32.37;21.17;;;11.40;99.90;;;;;;6285332;22;20746;-84
2024/04/01 02:05:37;;;;;;;36.10;23.47;;;11.40;99.90;;;;;;6284667;22;20427;-84
2024/04/01 02:08:03;;;;;;;36.63;23.20;;;11.40;99.90;;;;;;6285096;22;20174;-84
2024/04/01 02:10:30;;;;;;;32.30;23.50;;;11.30;99.90;;;;;;6284589;22;20420;-84
2024/04/01 02:12:56;;;;;;;37.70;23.80;;;11.40;99.90;;;;;;6285616;22;20431;-84
2024/04/01 02:15:25;;;;;;;39.27;23.90;;;11.30;99.90;;;;;;6284430;22;20375;-84
2024/04/01 02:17:50;;;;;;;37.03;24.03;;;11.30;99.90;;;;;;6285520;22;20899;-84
2024/04/01 02:20:17;;;;;;;34.63;22.43;;;11.30;99.90;;;;;;6284931;22;20400;-84
2024/04/01 02:22:44;;;;;;;39.43;24.00;;;11.20;99.90;;;;;;6285037;22;20467;-84
2024/04/01 02:25:17;;;;;;;44.17;24.80;;;11.20;99.90;;;;;;6286731;22;20414;-85
2024/04/01 02:27:43;;;;;;;41.73;22.77;;;11.20;99.90;;;;;;6287479;22;20835;-84
2024/04/01 02:30:10;;;;;;;36.00;23.10;;;11.10;99.90;;;;;;6294917;22;20375;-84
2024/04/01 02:32:37;;;;;;;38.77;23.50;;;11.10;99.90;;;;;;6303528;22;20383;-82
2024/04/01 02:35:05;;;;;;;32.20;24.17;;;11.10;99.90;;;;;;6302074;22;20410;-84
2024/04/01 02:37:31;;;;;;;40.67;23.27;;;11.10;99.90;;;;;;6296698;22;20747;-84
2024/04/01 02:39:58;;;;;;;35.27;24.73;;;11.10;99.90;;;;;;6294001;22;20404;-83
2024/04/01 02:42:24;;;;;;;62.67;37.83;;;11.10;99.90;;;;;;6287907;22;20443;-83
2024/04/01 02:44:51;;;;;;;36.37;23.57;;;11.00;99.90;;;;;;6286471;22;20435;-85
2024/04/01 02:47:18;;;;;;;43.83;23.97;;;11.00;99.90;;;;;;6287200;22;20404;-84
2024/04/01 02:49:47;;;;;;;42.50;24.80;;;10.90;99.90;;;;;;6287604;22;20404;-84
2024/04/01 02:52:13;;;;;;;36.47;23.67;;;10.90;99.90;;;;;;6286035;22;20420;-85
2024/04/01 02:54:40;;;;;;;38.87;24.67;;;10.90;99.90;;;;;;6285846;22;20446;-84
2024/04/01 02:57:06;;;;;;;37.53;23.33;;;10.80;99.90;;;;;;6285568;22;20382;-84
2024/04/01 02:59:33;;;;;;;33.20;25.00;;;10.80;99.90;;;;;;6288886;22;20400;-84
2024/04/01 03:02:00;;;;;;;39.13;25.03;;;10.90;99.90;;;;;;6290322;22;20419;-83
2024/04/01 03:04:26;;;;;;;41.90;23.60;;;10.80;99.90;;;;;;6283856;22;20429;-84
2024/04/01 03:06:55;;;;;;;39.37;23.77;;;10.80;99.90;;;;;;6284840;22;20408;-84
2024/04/01 03:09:21;;;;;;;32.27;23.87;;;10.70;99.90;;;;;;6285378;22;20424;-84
2024/04/01 03:11:48;;;;;;;42.97;24.60;;;10.80;99.90;;;;;;6284303;22;20391;-84
2024/04/01 03:14:14;;;;;;;33.90;24.80;;;10.60;99.90;;;;;;6289190;22;20430;-85
2024/04/01 03:16:41;;;;;;;41.47;23.47;;;10.60;99.90;;;;;;6295793;22;20400;-83
2024/04/01 03:19:07;;;;;;;37.07;23.50;;;10.70;99.90;;;;;;6301831;22;20411;-82
2024/04/01 03:21:34;;;;;;;40.73;24.00;;;10.70;99.90;;;;;;6302562;22;20416;-81
2024/04/01 03:24:01;;;;;;;39.47;22.80;;;10.70;99.90;;;;;;6305119;22;20388;-83
2024/04/01 03:26:28;;;;;;;42.20;25.43;;;10.70;99.90;;;;;;6305460;22;20416;-83
2024/04/01 03:28:54;;;;;;;35.40;25.10;;;10.60;99.90;;;;;;6305569;22;20434;-82
2024/04/01 03:31:21;;;;;;;39.57;23.67;;;10.60;99.90;;;;;;6305633;22;20523;-82
2024/04/01 03:33:47;;;;;;;34.77;22.57;;;10.50;99.90;;;;;;6304345;22;20366;-83
2024/04/01 03:36:14;;;;;;;32.60;24.33;;;10.50;99.90;;;;;;6304270;22;20392;-82
2024/04/01 03:38:41;;;;;;;39.57;25.60;;;10.50;99.90;;;;;;6304423;22;20228;-83
2024/04/01 03:41:09;;;;;;;39.93;23.03;;;10.60;99.90;;;;;;6300502;22;20402;-83
2024/04/01 03:43:35;;;;;;;32.77;22.33;;;10.60;99.90;;;;;;6302611;22;20405;-83
2024/04/01 03:46:03;;;;;;;42.93;24.97;;;10.60;99.90;;;;;;6299427;22;20374;-83
2024/04/01 03:48:29;;;;;;;43.87;25.23;;;10.60;99.90;;;;;;6294540;22;20379;-83
2024/04/01 03:50:56;;;;;;;40.90;26.10;;;10.60;99.90;;;;;;6288050;22;20410;-82
2024/04/01 03:53:22;;;;;;;44.93;23.83;;;10.70;99.90;;;;;;6288674;22;20404;-81
2024/04/01 03:55:49;;;;;;;42.40;25.00;;;10.60;99.90;;;;;;6290858;22;20400;-82
2024/04/01 03:58:16;;;;;;;44.03;24.73;;;10.70;99.90;;;;;;6292355;22;20408;-83
2024/04/01 04:00:43;;;;;;;43.87;26.00;;;10.60;99.90;;;;;;6293235;22;20402;-82
2024/04/01 04:03:09;;;;;;;42.20;24.00;;;10.70;99.90;;;;;;6292443;22;20444;-83
2024/04/01 04:05:37;;;;;;;44.17;24.07;;;10.60;99.90;;;;;;6293042;22;20408;-82
2024/04/01 04:08:03;;;;;;;48.17;23.63;;;10.60;99.90;;;;;;6291412;22;20396;-83
2024/04/01 04:10:31;;;;;;;40.20;23.77;;;10.70;99.90;;;;;;6285148;22;20478;-83
2024/04/01 04:12:57;;;;;;;37.33;23.53;;;10.70;99.90;;;;;;6284447;22;20411;-81
2024/04/01 04:15:25;;;;;;;42.77;24.20;;;10.70;99.90;;;;;;6288939;22;20400;-84
2024/04/01 04:17:51;;;;;;;41.60;22.90;;;10.80;99.90;;;;;;6288251;22;20400;-83
2024/04/01 04:20:18;;;;;;;46.13;23.53;;;10.80;99.90;;;;;;6294531;22;20391;-82
2024/04/01 04:22:45;;;;;;;34.53;22.90;;;10.80;99.90;;;;;;6285793;22;20417;-83
2024/04/01 04:25:13;;;;;;;42.40;23.00;;;10.80;99.90;;;;;;6288023;22;20379;-83
2024/04/01 04:27:38;;;;;;;31.83;22.50;;;10.80;99.90;;;;;;6287918;22;20408;-83
2024/04/01 04:30:08;;;;;;;43.43;25.07;;;10.80;99.90;;;;;;6289340;22;20412;-83
2024/04/01 04:32:39;;;;;;;46.90;24.47;;;10.80;99.90;;;;;;6288113;22;20404;-84
2024/04/01 04:35:08;;;;;;;47.17;23.27;;;10.90;99.90;;;;;;6301499;22;20388;-81
2024/04/01 04:37:35;;;;;;;42.10;23.00;;;10.90;99.90;;;;;;6302281;22;20416;-85
2024/04/01 04:40:03;;;;;;;42.10;23.67;;;10.90;99.90;;;;;;6296932;22;20404;-83
2024/04/01 04:42:28;;;;;;;53.27;26.23;;;10.90;99.90;;;;;;6292660;22;20414;-84
2024/04/01 04:44:56;;;;;;;48.40;24.70;;;10.90;99.90;;;;;;6303635;22;20404;-84
2024/04/01 04:47:22;;;;;;;33.30;21.33;;;10.90;99.90;;;;;;6303039;22;20386;-83
2024/04/01 04:49:50;;;;;;;53.87;23.83;;;10.80;99.90;;;;;;6293133;22;20469;-84
2024/04/01 04:52:16;;;;;;;53.67;23.17;;;10.70;99.90;;;;;;6291084;22;20454;-84
2024/04/01 04:54:43;;;;;;;43.60;23.70;;;10.60;99.90;;;;;;6291327;22;20404;-84
2024/04/01 04:57:09;;;;;;;58.73;22.50;;;10.50;99.90;;;;;;6290902;22;20382;-86
2024/04/01 04:59:36;;;;;;;42.27;23.93;;;10.60;99.90;;;;;;6290028;22;20375;-83
2024/04/01 05:02:06;;;;;;;45.23;22.90;;;10.60;99.90;;;;;;6289682;22;20473;-83
2024/04/01 05:04:34;;;;;;;37.47;23.73;;;10.50;99.90;;;;;;6290378;22;20400;-83
2024/04/01 05:07:02;;;;;;;39.20;21.43;;;10.50;99.90;;;;;;6291749;22;20758;-85
2024/04/01 05:09:29;;;;;;;38.73;23.37;;;10.50;99.90;;;;;;6287339;22;20428;-85
2024/04/01 05:11:55;;;;;;;44.83;23.67;;;10.40;99.90;;;;;;6289824;22;20445;-84
2024/04/01 05:14:22;;;;;;;43.30;23.53;;;10.40;99.90;;;;;;6294975;22;20363;-84
2024/04/01 05:16:48;;;;;;;45.27;23.10;;;10.40;99.90;;;;;;6303342;22;20435;-84
2024/04/01 05:19:16;;;;;;;40.10;23.80;;;10.50;99.90;;;;;;6296768;22;20400;-85
2024/04/01 05:21:42;;;;;;;41.13;24.47;;;10.60;99.90;;;;;;6289974;22;20444;-84
2024/04/01 05:24:10;;;;;;;47.40;23.93;;;10.70;99.90;;;;;;6293571;22;20941;-84
2024/04/01 05:26:36;;;;;;;46.17;23.93;;;10.60;99.90;;;;;;6288702;22;20452;-84
2024/04/01 05:29:03;;;;;;;52.67;22.77;;;10.70;99.90;;;;;;6287530;22;20383;-85
2024/04/01 05:31:29;;;;;;;42.97;22.53;;;10.70;99.90;;;;;;6289264;22;20827;-84
2024/04/01 05:33:57;;;;;;;40.30;22.67;;;10.70;99.90;;;;;;6287784;22;20452;-85
2024/04/01 05:36:26;;;;;;;46.00;23.20;;;10.70;99.90;;;;;;6288378;22;20774;-84
2024/04/01 05:38:53;;;;;;;43.03;23.80;;;10.70;99.90;;;;;;6288535;22;20378;-85
2024/04/01 05:41:21;;;;;;;35.83;23.37;;;10.80;99.90;;;;;;6287829;22;20403;-84
2024/04/01 05:43:48;;;;;;;57.10;23.93;;;10.80;99.90;;;;;;6288450;22;20469;-84
2024/04/01 05:46:15;;;;;;;42.27;23.50;;;10.80;99.90;;;;;;6291718;22;20423;-83
2024/04/01 05:48:43;;;;;;;35.37;21.70;;;10.80;99.90;;;;;;6300369;22;20379;-84
2024/04/01 05:51:08;;;;;;;38.53;24.00;;;10.90;99.90;;;;;;6297862;22;20460;-83
2024/04/01 05:53:36;;;;;;;40.40;22.70;;;10.90;99.90;;;;;;6289038;22;20383;-84
2024/04/01 05:56:03;;;;;;;45.43;23.23;;;10.80;99.90;;;;;;6291734;22;20484;-83
2024/04/01 05:58:32;;;;;;;37.63;22.63;;;10.80;99.90;;;;;;6296864;22;20921;-84
2024/04/01 06:01:00;;;;;;;45.63;20.63;;;10.80;99.90;;;;;;6288821;22;20395;-84
2024/04/01 06:03:27;;;;;;;51.83;23.20;;;10.90;99.90;;;;;;6288386;22;20445;-84
2024/04/01 06:05:53;;;;;;;51.53;22.80;;;10.90;99.90;;;;;;6288138;22;20404;-85
2024/04/01 06:08:20;;;;;;;51.97;25.30;;;11.00;99.90;;;;;;6286676;22;20374;-85
2024/04/01 06:10:45;;;;;;;40.03;21.17;;;11.10;47.00;;;;;;6283527;22;20981;-84
2024/04/01 06:13:13;;;;;;;62.00;24.23;;;11.20;1.00;;;;;;6282432;22;20371;-83
2024/04/01 06:15:41;;;;;;;44.70;23.63;;;11.40;1.00;;;;;;6284598;22;20458;-86
2024/04/01 06:18:07;;;;;;;40.33;19.90;;;11.40;99.90;;;;;;6285934;22;20408;-84
2024/04/01 06:20:33;;;;;;;45.53;20.70;;;11.50;99.90;;;;;;6286482;22;20422;-85
2024/04/01 06:23:00;;;;;;;46.60;21.63;;;11.60;1.00;;;;;;6287160;22;20436;-85
2024/04/01 06:25:27;;;;;;;45.37;21.20;;;11.60;1.00;;;;;;6299670;22;20709;-84
2024/04/01 06:27:53;;;;;;;48.60;19.60;;;11.60;1.00;;;;;;6306031;22;20444;-84
2024/04/01 06:30:19;;;;;;;44.73;21.60;;;11.60;1.00;;;;;;6305596;22;20389;-83
2024/04/01 06:32:48;;;;;;;48.53;21.00;;;11.60;1.00;;;;;;6305561;22;20396;-83
2024/04/01 06:35:14;;;;;;;36.20;20.57;;;11.60;1.00;;;;;;6305166;22;20158;-83
2024/04/01 06:37:41;;;;;;;37.47;20.00;;;11.60;1.00;;;;;;6299331;22;20413;-83
2024/04/01 06:40:08;;;;;;;38.20;20.70;;;11.70;1.00;;;;;;6286264;22;20433;-84
2024/04/01 06:42:35;;;;;;;39.53;21.17;;;11.70;99.90;;;;;;6285211;22;20436;-84
2024/04/01 06:45:01;;;;;;;47.40;21.20;;;11.70;1.00;;;;;;6284456;22;20406;-84
2024/04/01 06:47:27;;;;;;;44.83;21.43;;;11.80;1.00;;;;;;6284382;22;20382;-84
2024/04/01 06:49:55;;;;;;;48.40;21.33;;;11.80;99.90;;;;;;6285197;22;20261;-84
2024/04/01 06:52:21;;;;;;;43.37;18.93;;;11.80;99.90;;;;;;6296459;22;20395;-82
2024/04/01 06:54:47;;;;;;;52.37;21.27;;;11.90;99.90;;;;;;6303151;22;20375;-82
2024/04/01 06:57:14;;;;;;;50.17;21.83;;;11.90;99.90;;;;;;6296954;22;20416;-84
2024/04/01 06:59:40;;;;;;;47.43;20.90;;;12.00;27.30;;;;;;6287642;22;20406;-84
2024/04/01 07:02:07;;;;;;;40.10;20.27;;;12.10;7.70;;;;;;6302594;22;20415;-86
2024/04/01 07:04:33;;;;;;;59.50;20.53;;;12.10;1.00;;;;;;6298413;22;20407;-85
2024/04/01 07:07:01;;;;;;;39.73;19.83;;;12.10;1.00;;;;;;6288779;22;20754;-84
2024/04/01 07:09:27;;;;;;;43.53;21.03;;;12.20;1.00;;;;;;6288329;22;20204;-84
2024/04/01 07:11:54;;;;;;;52.63;21.03;;;12.20;1.00;;;;;;6290561;22;20728;-83
2024/04/01 07:14:20;;;;;;;42.33;20.07;;;12.10;1.00;;;;;;6298471;22;20178;-84
2024/04/01 07:16:47;;;;;;;54.23;19.63;;;12.20;1.00;;;;;;6301983;22;20434;-83
2024/04/01 07:19:13;;;;;;;38.70;19.57;;;12.30;1.00;;;;;;6299319;22;20400;-86
2024/04/01 07:21:40;;;;;;;44.07;20.27;;;12.30;99.90;;;;;;6297421;22;20423;-81
2024/04/01 07:24:08;;;;;;;53.50;20.57;;;12.40;99.90;;;;;;6301767;22;20198;-83
2024/04/01 07:26:34;;;;;;;50.07;20.23;;;12.50;99.90;;;;;;6286462;22;20389;-84
2024/04/01 07:29:00;;;;;;;44.40;19.43;;;12.70;99.90;;;;;;6291555;22;20405;-85
2024/04/01 07:31:27;;;;;;;49.03;18.30;;;12.90;1.00;;;;;;6286026;22;20399;-85
2024/04/01 07:33:53;;;;;;;43.87;19.23;;;13.00;1.00;;;;;;6286721;22;20408;-84
2024/04/01 07:36:20;;;;;;;44.67;18.97;;;13.00;99.90;;;;;;6297188;22;20371;-85
2024/04/01 07:38:46;;;;;;;32.10;17.40;;;13.10;99.90;;;;;;6302856;22;20174;-86
2024/04/01 07:41:14;;;;;;;36.93;16.47;;;13.30;99.90;;;;;;6305527;22;20415;-85
2024/04/01 07:43:40;;;;;;;46.67;16.83;;;13.40;99.90;;;;;;6305554;22;20424;-85
2024/04/01 07:46:07;;;;;;;46.63;18.13;;;13.40;99.90;;;;;;6304479;22;20377;-86
2024/04/01 07:48:32;;;;;;;34.43;16.33;;;13.40;93.10;;;;;;6303814;22;20174;-86
2024/04/01 07:51:03;;;;;;;64.20;16.70;;;13.40;66.10;;;;;;6303483;22;20405;-87
2024/04/01 07:53:29;;;;;;;44.63;16.50;;;13.40;1.00;;;;;;6292538;22;20835;-86
2024/04/01 07:55:56;;;;;;;45.60;15.23;;;13.50;1.00;;;;;;6292789;22;20406;-85
2024/04/01 07:58:23;;;;;;;45.17;15.50;;;13.50;1.00;;;;;;6292067;22;20409;-86
2024/04/01 08:00:50;;;;;;;37.43;15.70;;;13.60;1.00;;;;;;6293597;22;20403;-86
2024/04/01 08:03:16;;;;;;;43.93;15.90;;;13.70;1.00;;;;;;6293859;22;20415;-86
2024/04/01 08:05:43;;;;;;;37.57;13.27;;;13.70;1.00;;;;;;6292405;22;20438;-86
2024/04/01 08:08:09;;;;;;;40.37;14.80;;;13.70;1.00;;;;;;6291883;22;20408;-86
2024/04/01 08:10:37;;;;;;;40.53;14.70;;;13.80;1.00;;;;;;6291850;22;20417;-86
2024/04/01 08:13:03;;;;;;;37.93;15.20;;;14.00;1.00;;;;;;6292866;22;20181;-86
2024/04/01 08:15:31;;;;;;;37.47;15.37;;;14.10;1.00;;;;;;6289977;22;20404;-86
2024/04/01 08:17:57;;;;;;;32.67;16.43;;;14.20;1.00;;;;;;6289378;22;20432;-86
2024/04/01 08:20:24;;;;;;;37.13;13.33;;;14.30;1.00;;;;;;6290259;22;20427;-86
2024/04/01 08:22:50;;;;;;;32.07;14.80;;;14.40;1.00;;;;;;6295124;22;20315;-87
2024/04/01 08:25:17;;;;;;;35.73;12.90;;;14.50;1.00;;;;;;6292424;22;20407;-87
2024/04/01 08:27:43;;;;;;;33.37;14.60;;;14.50;1.00;;;;;;6289361;22;20411;-87
2024/04/01 08:30:11;;;;;;;39.57;13.40;;;14.70;1.00;;;;;;6290389;22;20400;-86
2024/04/01 08:32:38;;;;;;;31.67;13.93;;;14.70;1.00;;;;;;6288947;22;20225;-85
2024/04/01 08:35:05;;;;;;;41.60;15.40;;;14.80;1.00;;;;;;6290955;22;20413;-86
2024/04/01 08:37:32;;;;;;;41.80;15.13;;;14.80;1.00;;;;;;6292332;22;20450;-86
2024/04/01 08:39:58;;;;;;;39.47;14.47;;;14.70;1.00;;;;;;6290491;22;20468;-85
2024/04/01 08:42:26;;;;;;;34.70;12.73;;;14.60;1.00;;;;;;6288606;22;20440;-85
2024/04/01 08:44:56;;;;;;;32.47;13.87;;;14.70;1.00;;;;;;6297141;22;20407;-85
2024/04/01 08:47:24;;;;;;;42.50;13.60;;;14.70;1.00;;;;;;6286577;22;20430;-86
2024/04/01 08:50:00;;;;;;;36.27;15.17;;;14.90;1.00;;;;;;6284201;22;20492;-85
2024/04/01 08:52:27;;;;;;;32.33;13.03;;;15.00;1.00;;;;;;6284783;22;20914;-85
2024/04/01 08:54:54;;;;;;;37.17;13.67;;;15.20;1.00;;;;;;6294894;22;20400;-85
2024/04/01 08:57:20;;;;;;;25.90;12.37;;;15.40;1.00;;;;;;6300810;22;20401;-85
2024/04/01 08:59:49;;;;;;;38.53;13.57;;;15.60;1.00;;;;;;6296785;22;20407;-85
2024/04/01 09:02:14;;;;;;;33.37;11.97;;;15.80;1.00;;;;;;6298457;22;20432;-85
2024/04/01 09:04:41;;;;;;;33.20;13.13;;;15.70;1.00;;;;;;6294388;22;20423;-85
2024/04/01 09:07:14;;;;;;;28.50;11.57;;;15.70;1.00;;;;;;6303358;22;20162;-84
2024/04/01 09:09:41;;;;;;;28.47;12.60;;;15.70;1.00;;;;;;6283568;22;20399;-84
2024/04/01 09:12:09;;;;;;;28.17;12.80;;;15.50;1.00;;;;;;6284112;22;20424;-85
2024/04/01 09:14:36;;;;;;;38.87;12.60;;;15.60;1.00;;;;;;6286142;22;20408;-84
2024/04/01 09:17:02;;;;;;;41.23;10.70;;;15.80;1.00;;;;;;6286053;22;20408;-85
2024/04/01 09:19:31;;;;;;;29.57;11.87;;;15.90;1.00;;;;;;6286079;22;20465;-85
2024/04/01 09:22:01;;;;;;;26.03;10.97;;;16.10;1.00;;;;;;6286140;22;20420;-85
2024/04/01 09:24:29;;;;;;;37.03;13.43;;;16.30;1.00;;;;;;6286589;22;20468;-85
2024/04/01 09:26:55;;;;;;;26.40;10.93;;;16.40;1.00;;;;;;6287508;22;20428;-85
2024/04/01 09:29:22;;;;;;;35.43;10.33;;;16.30;1.00;;;;;;6287433;22;20423;-85
2024/04/01 09:31:49;;;;;;;36.00;11.50;;;16.30;1.00;;;;;;6290772;22;20197;-86
2024/04/01 09:34:16;;;;;;;23.90;10.30;;;16.40;1.00;;;;;;6288255;22;20404;-85
2024/04/01 09:36:42;;;;;;;30.27;9.50;;;16.60;1.00;;;;;;6287199;22;20992;-85
2024/04/01 09:39:10;;;;;;;30.83;10.17;;;16.70;1.00;;;;;;6287944;22;20389;-85
2024/04/01 09:41:38;;;;;;;22.50;9.47;;;16.90;1.00;;;;;;6287914;22;20943;-86
2024/04/01 09:44:09;;;;;;;25.07;9.63;;;16.90;1.00;;;;;;6288412;22;20436;-86
2024/04/01 09:46:35;;;;;;;24.70;9.10;;;17.00;1.00;;;;;;6289848;22;20389;-85
2024/04/01 09:49:04;;;;;;;25.50;7.97;;;17.00;1.00;;;;;;6290852;22;20457;-86
2024/04/01 09:51:31;;;;;;;16.57;7.50;;;17.20;1.00;;;;;;6289264;22;20424;-85
2024/04/01 09:53:58;;;;;;;25.53;7.83;;;17.20;99.90;;;;;;6288845;22;20883;-86
2024/04/01 09:57:14;;;;;;;21.10;7.20;;;17.20;99.90;;;;;;6290440;22;20460;-88
2024/04/01 10:00:15;;;;;;;24.50;9.00;;;17.30;99.90;;;;;;6216833;22;20444;-87
2024/04/01 10:03:19;;;;;;;22.27;6.87;;;17.50;99.90;;;;;;6289569;22;20444;-86
2024/04/01 10:06:16;;;;;;;18.73;6.80;;;17.70;99.90;;;;;;6214971;22;20400;-86
2024/04/01 10:09:20;;;;;;;18.87;7.10;;;18.10;99.90;;;;;;6290041;22;20386;-85
2024/04/01 10:12:08;;;;;;;16.63;6.37;;;18.60;99.90;;;;;;6298490;22;20430;-84
2024/04/01 10:15:18;;;;;;;22.00;5.93;;;18.70;99.90;;;;;;6298621;22;20390;-86
2024/04/01 10:18:02;;;;;;;12.57;5.87;;;18.80;99.90;;;;;;6305984;22;20367;-83
2024/04/01 10:21:00;;;;;;;23.07;6.67;;;19.10;99.90;;;;;;6303166;22;20413;-85
2024/04/01 10:24:00;;;;;;;15.50;4.20;;;19.50;99.90;;;;;;6298286;22;20442;-86
2024/04/01 10:26:58;;;;;;;9.50;3.83;;;19.50;99.90;;;;;;6292966;22;20387;-85
2024/04/01 10:30:03;;;;;;;10.13;3.90;;;19.40;99.90;;;;;;6291565;22;20377;-85
2024/04/01 10:33:08;;;;;;;13.20;3.70;;;19.70;99.90;;;;;;6237527;22;20431;-84
2024/04/01 10:36:04;;;;;;;7.67;3.63;;;19.90;99.90;;;;;;6300534;22;20424;-85
2024/04/01 10:39:06;;;;;;;12.77;2.97;;;20.00;99.90;;;;;;6291375;22;20424;-86
2024/04/01 10:42:12;;;;;;;9.47;3.67;;;20.10;99.90;;;;;;6290460;22;20419;-86
2024/04/01 10:45:11;;;;;;;8.93;3.90;;;20.30;99.90;;;;;;6228672;22;20454;-85
2024/04/01 10:48:14;;;;;;;15.67;6.47;;;20.10;99.90;;;;;;6290330;22;20731;-86
2024/04/01 10:51:29;;;;;;;9.20;3.77;;;20.00;99.90;;;;;;6295964;22;20448;-85
2024/04/01 10:54:01;;;;;;;9.20;4.17;;;19.80;99.90;;;;;;6305023;22;20403;-85
2024/04/01 10:57:00;;;;;;;12.87;4.33;;;19.60;99.90;;;;;;6300776;22;20388;-85
2024/04/01 10:59:54;;;;;;;13.93;4.47;;;19.60;99.90;;;;;;6300493;22;20385;-85
2024/04/01 11:02:50;;;;;;;10.73;4.30;;;19.60;99.90;;;;;;6281641;22;20433;-85
2024/04/01 11:05:32;;;;;;;14.40;4.10;;;19.60;99.90;;;;;;6291058;22;20387;-84
2024/04/01 11:08:11;;;;;;;12.33;3.97;;;19.60;99.90;;;;;;6292100;22;20897;-85
2024/04/01 11:10:40;;;;;;;15.00;5.20;;;19.70;99.90;;;;;;6292193;22;20727;-86
2024/04/01 11:13:11;;;;;;;16.23;5.27;;;19.80;99.90;;;;;;6290853;22;20491;-85
2024/04/01 11:15:40;;;;;;;9.27;3.47;;;19.90;99.90;;;;;;6291524;22;20388;-87
2024/04/01 11:18:30;;;;;;;14.60;4.03;;;19.90;99.90;;;;;;6294865;22;20400;-87
2024/04/01 11:21:04;;;;;;;13.30;4.17;;;20.00;99.90;;;;;;6294682;22;20432;-87
2024/04/01 11:23:45;;;;;;;12.07;4.70;;;20.00;99.90;;;;;;6301171;22;20431;-86
2024/04/01 11:26:44;;;;;;;14.23;3.00;;;20.10;99.90;;;;;;6301442;22;20392;-87
2024/04/01 11:29:29;;;;;;;7.53;3.70;;;20.00;99.90;;;;;;6298342;22;20385;-88
2024/04/01 11:32:00;;;;;;;20.40;4.60;;;20.00;99.90;;;;;;6296363;22;20432;-87
2024/04/01 11:34:42;;;;;;;9.43;3.40;;;20.00;99.90;;;;;;6302184;22;20401;-87
2024/04/01 11:37:16;;;;;;;7.20;3.47;;;19.90;99.90;;;;;;6305055;22;20448;-87
2024/04/01 11:39:52;;;;;;;12.40;4.93;;;19.90;99.90;;;;;;6305072;22;20373;-87
2024/04/01 11:42:23;;;;;;;8.83;3.67;;;19.80;99.90;;;;;;6304720;22;20424;-86
2024/04/01 11:44:51;;;;;;;17.23;4.80;;;19.80;99.90;;;;;;6303420;22;20421;-87
2024/04/01 11:47:19;;;;;;;9.27;3.70;;;19.70;99.90;;;;;;6295198;22;20396;-87
2024/04/01 11:49:47;;;;;;;13.93;4.60;;;19.70;99.90;;;;;;6293757;22;20465;-86
2024/04/01 11:52:15;;;;;;;13.13;4.37;;;19.70;99.90;;;;;;6292239;22;20428;-87
2024/04/01 11:54:42;;;;;;;10.60;3.73;;;19.80;99.90;;;;;;6295766;22;20412;-85
2024/04/01 11:57:09;;;;;;;9.37;3.63;;;19.90;99.90;;;;;;6304149;22;20400;-85
2024/04/01 11:59:37;;;;;;;20.07;4.07;;;19.90;99.90;;;;;;6304893;22;20422;-86
2024/04/01 12:02:13;;;;;;;12.97;4.27;;;20.00;99.90;;;;;;6301340;22;20507;-86
2024/04/01 12:04:39;;;;;;;19.30;6.73;;;19.90;99.90;;;;;;6295238;22;20451;-87
2024/04/01 12:07:11;;;;;;;9.27;3.73;;;20.00;99.90;;;;;;6293126;22;20404;-87
2024/04/01 12:09:39;;;;;;;7.13;3.37;;;19.90;99.90;;;;;;6290111;22;20468;-87
2024/04/01 12:12:10;;;;;;;14.30;4.77;;;19.90;99.90;;;;;;6290523;22;20461;-87
2024/04/01 12:14:39;;;;;;;16.70;5.53;;;20.10;99.90;;;;;;6294987;22;20432;-85
2024/04/01 12:17:08;;;;;;;14.20;4.60;;;19.90;99.90;;;;;;6305041;22;20474;-85
2024/04/01 12:19:36;;;;;;;13.70;4.10;;;20.10;99.90;;;;;;6305089;22;20401;-85
2024/04/01 12:22:03;;;;;;;16.90;4.50;;;20.10;99.90;;;;;;6303108;22;20425;-86
2024/04/01 12:24:32;;;;;;;16.83;4.83;;;20.20;99.90;;;;;;6293773;22;20440;-86
2024/04/01 12:27:03;;;;;;;11.80;4.07;;;20.10;99.90;;;;;;6294694;22;20400;-86
2024/04/01 12:29:32;;;;;;;14.10;5.20;;;20.10;99.90;;;;;;6294026;22;20443;-85
2024/04/01 12:32:01;;;;;;;10.40;4.80;;;20.10;99.90;;;;;;6289766;22;20445;-86
2024/04/01 12:34:33;;;;;;;9.50;4.17;;;20.10;99.90;;;;;;6289569;22;20404;-87
2024/04/01 12:37:02;;;;;;;17.20;3.53;;;20.10;99.90;;;;;;6302887;22;20373;-85
2024/04/01 12:39:30;;;;;;;10.27;4.10;;;19.90;99.90;;;;;;6306018;22;20563;-84
2024/04/01 12:41:59;;;;;;;11.23;5.80;;;19.90;99.90;;;;;;6306801;22;20467;-86
2024/04/01 12:44:25;;;;;;;9.60;3.63;;;19.90;99.90;;;;;;6304508;22;20462;-86
2024/04/01 12:46:53;;;;;;;10.60;3.90;;;19.90;99.90;;;;;;6289991;22;20483;-87